Time;durP1;ratioP1;P1;durP2;ratioP2;P2;SDS_P1;SDS_P2;PMS_P1;PMS_P2;Temp;Humidity;BMP_temperature;BMP_pressure;BME280_temperature;BME280_humidity;BME280_pressure;Samples;Min_cycle;Max_cycle;Signal;HPM_P1;HPM_P2
2023/06/24 00:01:22;;;;;;;;;;;;;;;27.51;34.62;100817.03;5098406;28;865;-18
2023/06/24 00:03:48;;;;;;;;;;;;;;;27.71;35.04;100811.09;5097894;28;1113;-19
2023/06/24 00:06:18;;;;;;;;;;;;;;;27.52;34.79;100807.06;5090426;28;1314;-18
2023/06/24 00:08:44;;;;;;;;;;;;;;;27.59;34.95;100801.78;5091319;28;1217;-19
2023/06/24 00:11:10;;;;;;;;;;;;;;;27.55;35.21;100797.75;5087286;28;1023;-19
2023/06/24 00:13:36;;;;;;;;;;;;;;;27.56;34.90;100800.25;5082236;28;1973;-19
2023/06/24 00:16:01;;;;;;;;;;;;;;;27.47;35.18;100804.06;5086893;28;1079;-18
2023/06/24 00:18:28;;;;;;;;;;;;;;;27.59;34.99;100808.00;5097973;28;1062;-17
2023/06/24 00:20:54;;;;;;;;;;;;;;;27.65;35.02;100806.44;5079772;28;866;-18
2023/06/24 00:23:24;;;;;;;;;;;;;;;27.50;34.78;100804.56;5097834;28;952;-19
2023/06/24 00:25:50;;;;;;;;;;;;;;;27.61;34.63;100805.94;5097475;28;1097;-19
2023/06/24 00:28:16;;;;;;;;;;;;;;;27.54;35.05;100802.31;5084544;28;1154;-18
2023/06/24 00:30:41;;;;;;;;;;;;;;;27.63;34.65;100798.50;5079515;28;1130;-18
2023/06/24 00:33:10;;;;;;;;;;;;;;;27.59;34.43;100788.25;5080840;28;1154;-18
2023/06/24 00:35:37;;;;;;;;;;;;;;;27.48;34.71;100784.13;5088531;28;1135;-18
2023/06/24 00:38:03;;;;;;;;;;;;;;;27.64;34.41;100788.53;5084030;28;1106;-18
2023/06/24 00:40:28;;;;;;;;;;;;;;;27.53;34.69;100789.00;5098090;28;1018;-18
2023/06/24 00:42:54;;;;;;;;;;;;;;;27.32;35.17;100793.25;5099638;28;1003;-19
2023/06/24 00:45:19;;;;;;;;;;;;;;;27.36;35.35;100784.59;5065019;28;882;-18
2023/06/24 00:47:45;;;;;;;;;;;;;;;27.41;34.59;100786.72;5059475;28;1079;-18
2023/06/24 00:50:13;;;;;;;;;;;;;;;27.31;34.96;100787.00;5079351;28;1133;-18
2023/06/24 00:52:42;;;;;;;;;;;;;;;27.34;34.82;100792.03;5079105;28;1018;-18
2023/06/24 00:55:08;;;;;;;;;;;;;;;27.42;34.78;100785.72;5062467;28;1902;-18
2023/06/24 00:57:33;;;;;;;;;;;;;;;27.54;34.99;100785.25;5083563;28;1042;-17
2023/06/24 00:59:59;;;;;;;;;;;;;;;27.47;34.80;100787.88;5086152;28;1118;-19
2023/06/24 01:02:27;;;;;;;;;;;;;;;27.58;34.65;100783.84;5090717;28;1119;-18
2023/06/24 01:04:53;;;;;;;;;;;;;;;27.50;34.65;100784.78;5088427;28;1250;-18
2023/06/24 01:07:19;;;;;;;;;;;;;;;27.41;35.01;100775.09;5078918;28;1064;-18
2023/06/24 01:09:44;;;;;;;;;;;;;;;27.56;34.37;100769.72;5078848;28;1012;-18
2023/06/24 01:12:10;;;;;;;;;;;;;;;27.52;34.22;100777.34;5083133;28;1165;-18
2023/06/24 01:14:35;;;;;;;;;;;;;;;27.61;34.25;100768.13;5067912;28;1902;-18
2023/06/24 01:17:15;;;;;;;;;;;;;;;27.46;34.71;100767.28;5076694;28;1160;-18
2023/06/24 01:19:51;;;;;;;;;;;;;;;27.60;34.07;100768.31;5071505;28;1218;-18
2023/06/24 01:22:46;;;;;;;;;;;;;;;27.53;34.62;100765.50;5089535;28;947;-18
2023/06/24 01:25:30;;;;;;;;;;;;;;;27.43;34.56;100762.22;5039440;28;1303;-18
2023/06/24 01:27:56;;;;;;;;;;;;;;;27.62;34.32;100753.59;5090210;28;1190;-17
2023/06/24 01:30:43;;;;;;;;;;;;;;;27.57;33.89;100752.47;5084246;28;1134;-18
2023/06/24 01:33:09;;;;;;;;;;;;;;;27.47;34.52;100755.44;5083485;28;1209;-18
2023/06/24 01:35:35;;;;;;;;;;;;;;;27.55;34.04;100749.09;5078430;28;2009;-18
2023/06/24 01:38:14;;;;;;;;;;;;;;;27.60;34.10;100752.94;5065342;28;1197;-18
2023/06/24 01:40:41;;;;;;;;;;;;;;;27.55;33.87;100739.16;5078459;28;1127;-18
2023/06/24 01:43:07;;;;;;;;;;;;;;;27.39;34.77;100740.19;5065199;28;1217;-18
2023/06/24 01:45:32;;;;;;;;;;;;;;;27.50;34.46;100741.56;5065894;28;1166;-18
2023/06/24 01:48:10;;;;;;;;;;;;;;;27.44;34.48;100742.31;5089619;28;1134;-18
2023/06/24 01:50:35;;;;;;;;;;;;;;;27.60;34.11;100741.28;5059057;28;1210;-18
2023/06/24 01:53:01;;;;;;;;;;;;;;;27.59;34.20;100743.13;5078052;28;1035;-18
2023/06/24 01:55:26;;;;;;;;;;;;;;;27.53;34.50;100746.59;5083197;28;1975;-18
2023/06/24 01:57:52;;;;;;;;;;;;;;;27.56;34.14;100738.09;5096288;28;832;-18
2023/06/24 02:00:18;;;;;;;;;;;;;;;27.55;34.50;100754.50;5064945;28;1103;-18
2023/06/24 02:02:49;;;;;;;;;;;;;;;27.58;33.96;100746.88;5070727;28;1186;-19
2023/06/24 02:05:15;;;;;;;;;;;;;;;27.41;34.40;100746.22;5056472;28;1135;-18
2023/06/24 02:07:41;;;;;;;;;;;;;;;27.35;34.50;100755.91;5069801;28;1217;-19
2023/06/24 02:10:07;;;;;;;;;;;;;;;27.38;34.25;100749.28;5071165;28;1119;-19
2023/06/24 02:12:32;;;;;;;;;;;;;;;27.56;33.94;100748.91;5058376;28;1016;-18
2023/06/24 02:14:58;;;;;;;;;;;;;;;27.66;33.91;100758.63;5053522;28;1963;-19
2023/06/24 02:17:24;;;;;;;;;;;;;;;27.51;34.60;100756.75;5089593;28;1003;-18
2023/06/24 02:19:49;;;;;;;;;;;;;;;27.55;33.77;100758.06;5076280;28;1122;-18
2023/06/24 02:22:15;;;;;;;;;;;;;;;27.62;33.51;100755.44;5065367;28;1019;-18
2023/06/24 02:24:41;;;;;;;;;;;;;;;27.55;33.92;100766.16;5082083;28;1027;-19
2023/06/24 02:27:06;;;;;;;;;;;;;;;27.64;34.08;100772.31;5069366;28;1315;-19
2023/06/24 02:29:32;;;;;;;;;;;;;;;27.41;34.20;100775.91;5069145;28;1127;-18
2023/06/24 02:31:57;;;;;;;;;;;;;;;27.46;34.44;100781.63;5075042;28;1106;-18
2023/06/24 02:34:24;;;;;;;;;;;;;;;27.59;34.05;100777.44;5075695;28;1906;-18
2023/06/24 02:36:50;;;;;;;;;;;;;;;27.38;34.21;100773.59;5082151;28;1106;-18
2023/06/24 02:39:15;;;;;;;;;;;;;;;27.39;34.35;100778.00;5081922;28;1051;-18
2023/06/24 02:41:41;;;;;;;;;;;;;;;27.60;33.20;100771.84;5099660;28;1129;-18
2023/06/24 02:44:07;;;;;;;;;;;;;;;27.52;33.78;100777.34;5086859;28;1078;-18
2023/06/24 02:46:33;;;;;;;;;;;;;;;27.46;34.01;100767.28;5074055;28;1285;-18
2023/06/24 02:48:59;;;;;;;;;;;;;;;27.42;34.08;100777.63;5059039;28;1108;-18
2023/06/24 02:51:25;;;;;;;;;;;;;;;27.37;34.20;100771.94;5074504;28;1034;-18
2023/06/24 02:53:51;;;;;;;;;;;;;;;27.60;33.70;100779.97;5075367;28;1893;-18
2023/06/24 02:56:20;;;;;;;;;;;;;;;27.61;33.44;100783.50;5081501;28;2361;-18
2023/06/24 02:58:47;;;;;;;;;;;;;;;27.48;33.94;100779.56;5079692;28;1383;-18
2023/06/24 03:01:24;;;;;;;;;;;;;;;27.47;34.09;100786.00;5045717;28;1222;-18
2023/06/24 03:03:54;;;;;;;;;;;;;;;27.42;33.97;100776.78;5058477;28;1722;-18
2023/06/24 03:06:19;;;;;;;;;;;;;;;27.32;33.75;100788.69;5074100;28;1166;-18
2023/06/24 03:08:46;;;;;;;;;;;;;;;27.42;33.77;100787.56;5060813;28;1210;-18
2023/06/24 03:11:13;;;;;;;;;;;;;;;27.38;33.76;100789.81;5069499;28;1146;-18
2023/06/24 03:13:39;;;;;;;;;;;;;;;27.53;33.71;100786.31;5077690;28;1898;-19
2023/06/24 03:16:19;;;;;;;;;;;;;;;27.25;35.31;100788.59;5077277;28;1229;-18
2023/06/24 03:18:54;;;;;;;;;;;;;;;26.38;39.35;100790.53;5065373;28;1384;-17
2023/06/24 03:21:20;;;;;;;;;;;;;;;26.13;40.70;100791.47;5058097;28;1110;-17
2023/06/24 03:23:46;;;;;;;;;;;;;;;26.15;41.18;100793.97;5057478;28;1507;-17
2023/06/24 03:26:14;;;;;;;;;;;;;;;26.06;42.18;100797.75;5077889;28;1241;-17
2023/06/24 03:28:42;;;;;;;;;;;;;;;25.89;42.54;100797.81;5078539;28;1133;-17
2023/06/24 03:31:11;;;;;;;;;;;;;;;25.99;42.84;100792.22;5077710;28;1117;-17
2023/06/24 03:33:37;;;;;;;;;;;;;;;26.08;42.38;100799.22;5064029;28;1959;-17
2023/06/24 03:36:04;;;;;;;;;;;;;;;26.34;41.19;100810.78;5069125;28;1337;-17
2023/06/24 03:38:33;;;;;;;;;;;;;;;26.43;40.53;100808.88;5058834;28;1641;-17
2023/06/24 03:40:58;;;;;;;;;;;;;;;26.31;41.45;100811.94;5077558;28;1043;-16
2023/06/24 03:43:24;;;;;;;;;;;;;;;26.63;40.82;100809.25;5063851;28;1151;-18
2023/06/24 03:45:50;;;;;;;;;;;;;;;26.75;40.15;100809.69;5069119;28;1213;-18
2023/06/24 03:48:15;;;;;;;;;;;;;;;26.95;40.30;100815.47;5070895;28;1182;-17
2023/06/24 03:50:41;;;;;;;;;;;;;;;26.96;40.71;100819.81;5066763;28;1127;-17
2023/06/24 03:53:06;;;;;;;;;;;;;;;27.21;38.92;100825.06;5078116;28;1049;-16
2023/06/24 03:55:33;;;;;;;;;;;;;;;27.30;38.40;100816.88;5077749;28;1913;-18
2023/06/24 03:57:58;;;;;;;;;;;;;;;27.29;38.58;100809.81;5077868;28;1034;-17
2023/06/24 04:00:25;;;;;;;;;;;;;;;27.38;39.34;100820.38;5070736;28;1188;-17
2023/06/24 04:02:52;;;;;;;;;;;;;;;27.06;39.05;100822.31;5064595;28;1225;-17
2023/06/24 04:05:17;;;;;;;;;;;;;;;26.92;39.83;100815.81;5087257;28;1102;-17
2023/06/24 04:07:46;;;;;;;;;;;;;;;26.98;39.55;100820.50;5078533;28;1156;-17
2023/06/24 04:10:13;;;;;;;;;;;;;;;26.81;39.94;100827.88;5069095;28;1165;-17
2023/06/24 04:12:38;;;;;;;;;;;;;;;26.68;41.03;100833.84;5082513;28;1030;-18
2023/06/24 04:15:04;;;;;;;;;;;;;;;26.81;40.80;100833.25;5060398;28;1981;-17
2023/06/24 04:17:32;;;;;;;;;;;;;;;26.81;41.01;100830.56;5059976;28;1412;-17
2023/06/24 04:19:58;;;;;;;;;;;;;;;26.58;42.90;100828.69;5073773;28;1359;-18
2023/06/24 04:22:24;;;;;;;;;;;;;;;26.33;44.17;100834.22;5079171;28;871;-17
2023/06/24 04:24:50;;;;;;;;;;;;;;;26.33;44.54;100841.44;5078367;28;1266;-17
2023/06/24 04:27:16;;;;;;;;;;;;;;;26.35;44.39;100845.66;5059249;28;1229;-17
2023/06/24 04:29:42;;;;;;;;;;;;;;;26.31;44.26;100848.88;5073016;28;1150;-17
2023/06/24 04:32:08;;;;;;;;;;;;;;;26.32;44.35;100846.00;5075152;28;1403;-17
2023/06/24 04:34:33;;;;;;;;;;;;;;;26.36;44.33;100846.53;5097920;28;1917;-17
2023/06/24 04:36:59;;;;;;;;;;;;;;;26.35;44.87;100847.50;5079396;28;1352;-17
2023/06/24 04:39:25;;;;;;;;;;;;;;;26.48;42.43;100847.78;5080000;28;1320;-18
2023/06/24 04:41:50;;;;;;;;;;;;;;;26.50;44.24;100853.84;5098393;28;1532;-17
2023/06/24 04:44:16;;;;;;;;;;;;;;;26.58;44.08;100855.66;5087790;28;1142;-17
2023/06/24 04:46:41;;;;;;;;;;;;;;;26.88;42.49;100852.28;5082809;28;1178;-17
2023/06/24 04:49:07;;;;;;;;;;;;;;;26.81;41.79;100854.84;5077373;28;1146;-17
2023/06/24 04:51:32;;;;;;;;;;;;;;;26.95;42.22;100855.09;5090492;28;1066;-17
2023/06/24 04:53:58;;;;;;;;;;;;;;;26.84;42.45;100857.19;5080039;28;1910;-17
2023/06/24 04:56:24;;;;;;;;;;;;;;;26.95;42.59;100858.66;5094383;28;1046;-17
2023/06/24 04:58:50;;;;;;;;;;;;;;;26.90;42.86;100859.19;5077603;28;927;-18
2023/06/24 05:01:15;;;;;;;;;;;;;;;26.87;42.90;100856.00;5094116;28;1170;-17
2023/06/24 05:03:41;;;;;;;;;;;;;;;26.89;41.89;100862.06;5087252;28;1113;-18
2023/06/24 05:06:06;;;;;;;;;;;;;;;27.18;41.79;100863.25;5089983;28;1079;-17
2023/06/24 05:08:32;;;;;;;;;;;;;;;26.72;42.85;100862.19;5087869;28;1058;-16
2023/06/24 05:10:57;;;;;;;;;;;;;;;27.01;42.26;100860.66;5093783;28;1081;-18
2023/06/24 05:13:23;;;;;;;;;;;;;;;27.07;41.24;100860.97;5085927;28;1926;-17
2023/06/24 05:15:48;;;;;;;;;;;;;;;26.88;42.11;100852.28;5076535;28;1073;-17
2023/06/24 05:18:14;;;;;;;;;;;;;;;26.99;41.42;100853.75;5076972;28;1070;-17
2023/06/24 05:20:39;;;;;;;;;;;;;;;27.10;41.42;100853.34;5076871;28;1099;-17
2023/06/24 05:23:05;;;;;;;;;;;;;;;27.05;41.74;100853.03;5090086;28;1027;-17
2023/06/24 05:25:30;;;;;;;;;;;;;;;26.92;41.51;100858.16;5079522;28;1138;-17
2023/06/24 05:27:56;;;;;;;;;;;;;;;27.02;41.52;100864.22;5091923;28;2031;-18
2023/06/24 05:30:21;;;;;;;;;;;;;;;26.99;41.53;100864.53;5083976;28;1236;-17
2023/06/24 05:32:47;;;;;;;;;;;;;;;27.12;41.24;100862.13;5097098;28;1249;-18
2023/06/24 05:35:12;;;;;;;;;;;;;;;26.95;41.72;100861.34;5089287;28;1901;-17
2023/06/24 05:37:38;;;;;;;;;;;;;;;26.98;41.67;100866.38;5090093;28;972;-17
2023/06/24 05:40:05;;;;;;;;;;;;;;;27.18;41.17;100871.34;5076807;28;1117;-18
2023/06/24 05:42:30;;;;;;;;;;;;;;;27.25;40.63;100872.31;5090502;28;1213;-17
2023/06/24 05:44:56;;;;;;;;;;;;;;;27.02;41.38;100861.50;5095881;28;1240;-17
2023/06/24 05:47:21;;;;;;;;;;;;;;;27.31;40.48;100865.31;5096644;28;1375;-18
2023/06/24 05:49:46;;;;;;;;;;;;;;;27.41;40.23;100861.53;5096386;28;1394;-17
2023/06/24 05:52:12;;;;;;;;;;;;;;;27.46;40.04;100854.56;5096854;28;1374;-16
2023/06/24 05:54:37;;;;;;;;;;;;;;;27.41;40.28;100859.66;5078682;28;1986;-17
2023/06/24 05:57:06;;;;;;;;;;;;;;;27.45;40.39;100852.03;5096276;28;1434;-17
2023/06/24 05:59:31;;;;;;;;;;;;;;;27.50;40.25;100852.34;5096134;28;1078;-18
2023/06/24 06:01:57;;;;;;;;;;;;;;;27.56;39.41;100848.06;5092915;28;1292;-17
2023/06/24 06:04:22;;;;;;;;;;;;;;;27.56;39.77;100848.06;5086739;28;1325;-17
2023/06/24 06:06:48;;;;;;;;;;;;;;;27.42;40.02;100855.97;5096059;28;1308;-17
2023/06/24 06:09:14;;;;;;;;;;;;;;;27.81;40.71;100850.56;5096685;28;1380;-18
2023/06/24 06:11:39;;;;;;;;;;;;;;;28.15;38.87;100856.41;5096048;28;1331;-18
2023/06/24 06:14:05;;;;;;;;;;;;;;;28.24;39.01;100856.13;5089448;28;1983;-16
2023/06/24 06:16:31;;;;;;;;;;;;;;;28.19;38.79;100846.91;5089698;28;1328;-17
2023/06/24 06:18:56;;;;;;;;;;;;;;;28.06;39.94;100848.41;5095988;28;1173;-18
2023/06/24 06:21:22;;;;;;;;;;;;;;;27.86;40.13;100848.97;5096207;28;1347;-18
2023/06/24 06:23:47;;;;;;;;;;;;;;;27.98;40.15;100851.19;5096253;28;1118;-17
2023/06/24 06:26:13;;;;;;;;;;;;;;;27.83;40.16;100849.34;5065069;28;1328;-17
2023/06/24 06:28:38;;;;;;;;;;;;;;;27.95;40.15;100849.72;5095899;28;1300;-18
2023/06/24 06:31:04;;;;;;;;;;;;;;;28.02;39.41;100844.41;5083076;28;1351;-18
2023/06/24 06:33:29;;;;;;;;;;;;;;;28.22;39.22;100836.56;5096020;28;1906;-18
2023/06/24 06:35:55;;;;;;;;;;;;;;;27.86;39.77;100840.03;5083641;28;1359;-18
2023/06/24 06:38:20;;;;;;;;;;;;;;;27.95;38.86;100830.78;5096124;28;1367;-18
2023/06/24 06:40:46;;;;;;;;;;;;;;;28.08;38.96;100840.94;5096349;28;1332;-18
2023/06/24 06:43:11;;;;;;;;;;;;;;;28.06;39.13;100843.00;5095741;28;1158;-18
2023/06/24 06:45:37;;;;;;;;;;;;;;;27.92;39.52;100835.72;5096413;28;1395;-18
2023/06/24 06:48:07;;;;;;;;;;;;;;;27.92;39.26;100836.56;5095758;28;1485;-18
2023/06/24 06:50:32;;;;;;;;;;;;;;;27.96;39.21;100820.81;5095781;28;1390;-18
2023/06/24 06:52:58;;;;;;;;;;;;;;;28.05;38.91;100822.41;5096450;28;1367;-18
2023/06/24 06:55:23;;;;;;;;;;;;;;;27.95;38.65;100819.13;5082440;28;1926;-18
2023/06/24 06:57:49;;;;;;;;;;;;;;;28.02;38.36;100813.81;5095650;28;1324;-18
2023/06/24 07:00:14;;;;;;;;;;;;;;;27.49;40.51;100815.53;5095870;28;1328;-19
2023/06/24 07:02:40;;;;;;;;;;;;;;;28.24;38.12;100812.84;5095994;28;1280;-18
2023/06/24 07:05:06;;;;;;;;;;;;;;;28.25;38.43;100824.50;5095898;28;1320;-18
2023/06/24 07:07:32;;;;;;;;;;;;;;;28.34;37.98;100815.28;5096141;28;1466;-18
2023/06/24 07:09:58;;;;;;;;;;;;;;;28.13;37.59;100812.50;5096844;28;1205;-18
2023/06/24 07:12:23;;;;;;;;;;;;;;;27.66;38.78;100818.91;5099113;28;1174;-18
2023/06/24 07:14:50;;;;;;;;;;;;;;;28.33;37.89;100810.06;5087399;28;1905;-19
2023/06/24 07:17:15;;;;;;;;;;;;;;;28.38;37.73;100820.34;5098944;28;1352;-18
2023/06/24 07:19:41;;;;;;;;;;;;;;;28.35;37.31;100825.09;5099519;28;1327;-18
2023/06/24 07:22:06;;;;;;;;;;;;;;;28.50;38.29;100829.63;5099391;28;1308;-18
2023/06/24 07:24:32;;;;;;;;;;;;;;;28.26;38.33;100825.34;5099226;28;995;-18
2023/06/24 07:26:57;;;;;;;;;;;;;;;28.75;37.67;100823.00;5099405;28;1348;-18
2023/06/24 07:29:23;;;;;;;;;;;;;;;28.39;38.37;100822.84;5067988;28;1316;-18
2023/06/24 07:31:48;;;;;;;;;;;;;;;28.55;37.57;100829.03;5098902;28;1066;-18
2023/06/24 07:34:14;;;;;;;;;;;;;;;28.20;39.23;100826.94;5099187;28;1909;-19
2023/06/24 07:36:39;;;;;;;;;;;;;;;27.87;38.92;100828.19;5098981;28;1138;-18
2023/06/24 07:39:05;;;;;;;;;;;;;;;28.68;36.50;100841.88;5099594;28;1157;-18
2023/06/24 07:41:31;;;;;;;;;;;;;;;28.83;36.60;100834.56;5098692;28;1308;-18
2023/06/24 07:43:57;;;;;;;;;;;;;;;28.51;36.59;100833.19;5099406;28;1150;-18
2023/06/24 07:46:22;;;;;;;;;;;;;;;28.68;36.96;100840.03;5090424;28;1501;-18
2023/06/24 07:48:48;;;;;;;;;;;;;;;29.07;36.87;100845.22;5093697;28;1130;-18
2023/06/24 07:51:13;;;;;;;;;;;;;;;29.32;36.25;100839.41;5098551;28;1264;-18
2023/06/24 07:53:39;;;;;;;;;;;;;;;29.17;36.77;100836.78;5099185;28;1909;-18
2023/06/24 07:56:04;;;;;;;;;;;;;;;29.23;37.51;100841.41;5098084;28;1347;-18
2023/06/24 07:58:30;;;;;;;;;;;;;;;29.08;37.79;100830.63;5099006;28;1381;-18
2023/06/24 08:00:55;;;;;;;;;;;;;;;29.06;37.14;100841.66;5084875;28;1174;-18
2023/06/24 08:03:22;;;;;;;;;;;;;;;29.21;37.49;100833.47;5099027;28;1311;-18
2023/06/24 08:05:49;;;;;;;;;;;;;;;28.77;39.03;100821.81;5099072;28;1366;-19
2023/06/24 08:08:15;;;;;;;;;;;;;;;28.86;38.44;100833.34;5098559;28;1399;-18
2023/06/24 08:10:40;;;;;;;;;;;;;;;29.13;38.01;100833.59;5094168;28;1331;-18
2023/06/24 08:13:06;;;;;;;;;;;;;;;28.87;38.48;100826.03;5089023;28;1027;-19
2023/06/24 08:15:31;;;;;;;;;;;;;;;28.58;39.21;100837.63;5098217;28;1984;-18
2023/06/24 08:17:57;;;;;;;;;;;;;;;28.95;38.46;100840.31;5098455;28;1323;-18
2023/06/24 08:20:22;;;;;;;;;;;;;;;28.63;37.49;100830.81;5098108;28;1328;-18
2023/06/24 08:22:48;;;;;;;;;;;;;;;28.80;37.77;100826.81;5098215;28;1351;-18
2023/06/24 08:25:14;;;;;;;;;;;;;;;29.12;36.64;100833.81;5062742;28;1408;-18
2023/06/24 08:27:39;;;;;;;;;;;;;;;28.66;36.83;100831.25;5098326;28;1347;-18
2023/06/24 08:30:08;;;;;;;;;;;;;;;29.13;36.17;100820.06;5098288;28;1335;-19
2023/06/24 08:32:33;;;;;;;;;;;;;;;29.44;35.42;100818.03;5098201;28;1386;-18
2023/06/24 08:34:59;;;;;;;;;;;;;;;29.19;35.96;100818.47;5098384;28;1988;-18
2023/06/24 08:37:24;;;;;;;;;;;;;;;28.95;35.45;100818.63;5097259;28;1044;-18
2023/06/24 08:39:50;;;;;;;;;;;;;;;29.34;34.95;100821.91;5084369;28;1150;-19
2023/06/24 08:42:15;;;;;;;;;;;;;;;29.13;35.54;100824.66;5084248;28;1161;-18
2023/06/24 08:44:41;;;;;;;;;;;;;;;29.09;36.36;100821.50;5097087;28;1212;-18
2023/06/24 08:47:06;;;;;;;;;;;;;;;29.32;35.91;100832.13;5095122;28;1240;-17
2023/06/24 08:49:32;;;;;;;;;;;;;;;29.63;34.84;100824.63;5094645;28;1228;-19
2023/06/24 08:52:02;;;;;;;;;;;;;;;29.70;34.92;100819.25;5054151;28;2047;-18
2023/06/24 08:54:28;;;;;;;;;;;;;;;29.42;35.08;100822.78;5094283;28;1964;-19
2023/06/24 08:56:53;;;;;;;;;;;;;;;29.67;34.31;100833.22;5094313;28;1249;-18
2023/06/24 08:59:20;;;;;;;;;;;;;;;29.37;35.06;100820.69;5094192;28;1224;-18
2023/06/24 09:01:49;;;;;;;;;;;;;;;29.17;36.60;100831.34;5094186;28;1027;-18
2023/06/24 09:04:14;;;;;;;;;;;;;;;29.28;35.68;100819.16;5078784;28;1229;-19
2023/06/24 09:06:40;;;;;;;;;;;;;;;29.65;35.70;100827.16;5096932;28;1197;-18
2023/06/24 09:09:05;;;;;;;;;;;;;;;29.38;36.48;100829.66;5096969;28;1257;-18
2023/06/24 09:11:32;;;;;;;;;;;;;;;28.45;38.79;100822.09;5078455;28;1310;-18
2023/06/24 09:13:58;;;;;;;;;;;;;;;28.46;39.16;100821.03;5093824;28;1909;-17
2023/06/24 09:16:23;;;;;;;;;;;;;;;28.05;39.59;100816.13;5097042;28;1233;-17
2023/06/24 09:18:49;;;;;;;;;;;;;;;27.94;39.89;100810.19;5093688;28;1232;-18
2023/06/24 09:21:25;;;;;;;;;;;;;;;28.16;39.36;100812.94;5096957;28;1272;-19
2023/06/24 09:23:53;;;;;;;;;;;;;;;27.90;39.73;100818.84;5096179;28;1193;-18
2023/06/24 09:26:19;;;;;;;;;;;;;;;28.10;39.24;100821.81;5096851;28;1205;-17
2023/06/24 09:28:49;;;;;;;;;;;;;;;27.89;39.88;100822.59;5076292;28;1296;-18
2023/06/24 09:31:14;;;;;;;;;;;;;;;27.94;39.28;100810.19;5096790;28;1284;-18
2023/06/24 09:33:40;;;;;;;;;;;;;;;28.07;39.20;100823.06;5095581;28;1910;-18
2023/06/24 09:36:05;;;;;;;;;;;;;;;27.93;39.50;100823.88;5095766;28;1229;-18
2023/06/24 09:38:35;;;;;;;;;;;;;;;27.86;39.78;100823.81;5094182;28;1296;-18
2023/06/24 09:41:04;;;;;;;;;;;;;;;27.85;39.78;100830.22;5093420;28;1228;-18
2023/06/24 09:43:30;;;;;;;;;;;;;;;27.85;39.64;100820.25;5093611;28;1260;-18
2023/06/24 09:45:55;;;;;;;;;;;;;;;27.85;39.49;100820.25;5096674;28;1217;-18
2023/06/24 09:48:21;;;;;;;;;;;;;;;27.89;39.41;100826.13;5091652;28;1232;-18
2023/06/24 09:50:46;;;;;;;;;;;;;;;27.92;39.46;100814.94;5078511;28;1324;-17
2023/06/24 09:53:12;;;;;;;;;;;;;;;27.70;39.30;100817.56;5078800;28;1288;-19
2023/06/24 09:55:43;;;;;;;;;;;;;;;28.03;38.13;100818.22;5095491;28;1986;-18
2023/06/24 09:58:08;;;;;;;;;;;;;;;27.62;39.05;100810.34;5078975;28;1221;-18
2023/06/24 10:00:34;;;;;;;;;;;;;;;27.86;39.07;100815.69;5072928;28;1245;-17
2023/06/24 10:02:59;;;;;;;;;;;;;;;27.81;38.85;100800.03;5074068;28;1307;-18
2023/06/24 10:05:25;;;;;;;;;;;;;;;27.88;38.97;100808.22;5072789;28;1240;-18
2023/06/24 10:07:50;;;;;;;;;;;;;;;27.83;38.48;100811.50;5074561;28;1253;-16
2023/06/24 10:10:16;;;;;;;;;;;;;;;28.03;38.57;100805.50;5073334;28;1256;-17
2023/06/24 10:12:41;;;;;;;;;;;;;;;27.68;39.50;100805.19;5072046;28;1373;-18
2023/06/24 10:15:07;;;;;;;;;;;;;;;27.71;39.61;100802.19;5071287;28;1910;-18
2023/06/24 10:17:32;;;;;;;;;;;;;;;27.95;38.95;100797.50;5074446;28;1280;-18
2023/06/24 10:19:58;;;;;;;;;;;;;;;28.09;39.19;100807.47;5075806;28;1363;-18
2023/06/24 10:22:28;;;;;;;;;;;;;;;27.81;40.34;100812.72;5074197;28;1265;-18
2023/06/24 10:24:54;;;;;;;;;;;;;;;27.99;39.59;100798.81;5075403;28;1233;-17
2023/06/24 10:27:22;;;;;;;;;;;;;;;27.98;39.92;100791.72;5075550;28;1247;-17
2023/06/24 10:29:48;;;;;;;;;;;;;;;27.71;40.67;100797.59;5073091;28;1220;-17
2023/06/24 10:32:14;;;;;;;;;;;;;;;27.66;40.95;100801.88;5073612;28;1272;-17
2023/06/24 10:34:41;;;;;;;;;;;;;;;27.59;41.46;100801.78;5075182;28;1984;-18
2023/06/24 10:37:25;;;;;;;;;;;;;;;27.81;40.58;100797.31;5074791;28;1291;-17
2023/06/24 10:40:00;;;;;;;;;;;;;;;27.63;41.53;100806.59;5075722;28;1228;-18
2023/06/24 10:42:46;;;;;;;;;;;;;;;27.59;40.85;100791.78;5075749;28;1241;-17
2023/06/24 10:45:12;;;;;;;;;;;;;;;27.54;41.76;100796.06;5078824;28;1153;-17
2023/06/24 10:47:41;;;;;;;;;;;;;;;27.57;41.25;100793.84;5076269;28;1272;-17
2023/06/24 10:50:07;;;;;;;;;;;;;;;27.69;41.52;100788.00;5073174;28;1230;-17
2023/06/24 10:52:36;;;;;;;;;;;;;;;27.67;41.67;100788.16;5078208;28;1228;-18
2023/06/24 10:55:02;;;;;;;;;;;;;;;27.63;41.74;100781.44;5078329;28;1914;-18
2023/06/24 10:57:28;;;;;;;;;;;;;;;27.67;41.45;100776.50;5072185;28;1197;-17
2023/06/24 10:59:54;;;;;;;;;;;;;;;27.62;41.42;100788.72;5077349;28;1276;-18
2023/06/24 11:02:20;;;;;;;;;;;;;;;27.56;41.57;100786.75;5077200;28;1252;-17
2023/06/24 11:04:49;;;;;;;;;;;;;;;27.51;41.54;100783.75;5098082;28;1209;-17
2023/06/24 11:07:16;;;;;;;;;;;;;;;27.51;41.06;100781.91;5099364;28;1288;-18
2023/06/24 11:09:42;;;;;;;;;;;;;;;27.38;41.72;100784.41;5096409;28;1193;-18
2023/06/24 11:12:08;;;;;;;;;;;;;;;26.68;41.40;100646.81;5098968;28;1197;-18
2023/06/24 11:14:35;;;;;;;;;;;;;;;27.70;41.06;100776.16;5093675;28;1972;-18
2023/06/24 11:17:02;;;;;;;;;;;;;;;27.56;41.62;100788.63;5099288;28;1166;-18
2023/06/24 11:19:27;;;;;;;;;;;;;;;27.54;41.38;100780.72;5099592;28;1220;-18
2023/06/24 11:21:53;;;;;;;;;;;;;;;27.68;41.10;100762.84;5099010;28;1252;-18
2023/06/24 11:24:18;;;;;;;;;;;;;;;27.74;41.27;100766.66;5099189;28;1221;-18
2023/06/24 11:26:45;;;;;;;;;;;;;;;27.71;41.46;100762.47;5098444;28;1264;-17
2023/06/24 11:29:11;;;;;;;;;;;;;;;27.58;41.59;100751.44;5095478;28;1118;-18
2023/06/24 11:31:37;;;;;;;;;;;;;;;27.66;41.48;100756.75;5099398;28;1034;-17
2023/06/24 11:34:03;;;;;;;;;;;;;;;27.72;41.44;100758.75;5098580;28;1984;-18
2023/06/24 11:36:29;;;;;;;;;;;;;;;27.58;42.30;100746.03;5098333;28;1240;-18
2023/06/24 11:38:54;;;;;;;;;;;;;;;27.91;41.64;100747.56;5095262;28;1034;-17
2023/06/24 11:41:23;;;;;;;;;;;;;;;27.83;42.00;100745.75;5098680;28;1189;-18
2023/06/24 11:43:48;;;;;;;;;;;;;;;27.93;41.86;100743.63;5098569;28;1220;-18
2023/06/24 11:46:26;;;;;;;;;;;;;;;27.78;42.39;100737.41;5098913;28;1221;-17
2023/06/24 11:48:52;;;;;;;;;;;;;;;27.91;41.96;100734.03;5098531;28;1209;-17
2023/06/24 11:51:17;;;;;;;;;;;;;;;27.81;42.43;100729.75;5092874;28;1212;-18
2023/06/24 11:53:43;;;;;;;;;;;;;;;27.67;42.99;100741.38;5097812;28;1901;-16
2023/06/24 11:56:09;;;;;;;;;;;;;;;27.71;42.57;100731.91;5098314;28;1342;-17
2023/06/24 11:58:38;;;;;;;;;;;;;;;27.71;42.90;100740.03;5098001;28;1288;-17
2023/06/24 12:01:03;;;;;;;;;;;;;;;27.66;42.75;100735.13;5096999;28;1237;-17
2023/06/24 12:03:29;;;;;;;;;;;;;;;27.91;42.39;100731.34;5095691;28;1312;-17
2023/06/24 12:05:54;;;;;;;;;;;;;;;27.73;43.01;100727.13;5098458;28;1225;-18
2023/06/24 12:08:22;;;;;;;;;;;;;;;27.80;42.88;100732.63;5095278;28;1276;-17
2023/06/24 12:10:48;;;;;;;;;;;;;;;27.61;43.42;100733.00;5097800;28;1161;-17
2023/06/24 12:13:13;;;;;;;;;;;;;;;27.55;43.69;100732.91;5094906;28;1275;-17
2023/06/24 12:15:39;;;;;;;;;;;;;;;27.51;43.77;100727.03;5097848;28;1914;-17
2023/06/24 12:18:05;;;;;;;;;;;;;;;27.59;43.40;100726.09;5095420;28;1343;-18
2023/06/24 12:20:30;;;;;;;;;;;;;;;27.56;43.32;100734.59;5094918;28;1283;-17
2023/06/24 12:22:56;;;;;;;;;;;;;;;27.48;42.99;100725.53;5095871;28;1165;-18
2023/06/24 12:25:21;;;;;;;;;;;;;;;27.48;43.10;100727.41;5094264;28;1236;-18
2023/06/24 12:27:47;;;;;;;;;;;;;;;27.57;42.94;100734.41;5079996;28;1224;-16
2023/06/24 12:30:13;;;;;;;;;;;;;;;27.54;43.03;100728.53;5098008;28;1288;-18
2023/06/24 12:32:38;;;;;;;;;;;;;;;27.49;42.83;100738.00;5085987;28;997;-18
2023/06/24 12:35:04;;;;;;;;;;;;;;;27.57;42.43;100742.50;5082016;28;1905;-17
2023/06/24 12:37:30;;;;;;;;;;;;;;;27.61;42.79;100740.28;5089891;28;1054;-18
2023/06/24 12:39:56;;;;;;;;;;;;;;;27.50;43.03;100737.00;5084303;28;1105;-18
2023/06/24 12:42:21;;;;;;;;;;;;;;;27.63;43.05;100739.06;5083720;28;1288;-18
2023/06/24 12:44:47;;;;;;;;;;;;;;;27.63;42.45;100728.25;5098008;28;1422;-18